Time,TemperatureF,DewpointF,PressureIn,WindDirection,WindDirectionDegrees,WindSpeedMPH,WindSpeedGustMPH,Humidity,HourlyPrecipIn,Conditions,Clouds,dailyrainin,SoftwareType,DateUTC
2013-12-26 00:22:00,19.0,11.0,28.76,SE,144,0.0,2.0,72,0.00,,,0.31,,2013-12-26 06:22:00,
2013-12-26 00:42:00,19.0,11.0,28.76,SE,144,0.0,2.0,72,0.00,,,0.31,,2013-12-26 06:42:00,
2013-12-26 01:21:00,17.0,10.0,28.73,SE,144,0.0,0.0,73,0.00,,,0.31,,2013-12-26 07:21:00,
2013-12-26 02:53:00,17.0,10.0,28.73,SE,144,0.0,0.0,74,0.00,,,0.31,,2013-12-26 08:53:00,
2013-12-26 03:12:00,17.0,10.0,28.73,SE,144,2.0,3.0,75,0.00,,,0.31,,2013-12-26 09:12:00,
2013-12-26 03:22:00,17.0,10.0,28.73,SE,144,2.0,3.0,75,0.00,,,0.31,,2013-12-26 09:22:00,
2013-12-26 03:53:00,18.0,12.0,28.73,SE,143,0.0,3.0,76,0.00,,,0.31,,2013-12-26 09:53:00,
2013-12-26 04:22:00,17.0,11.0,28.70,SE,143,0.0,0.0,76,0.00,,,0.31,,2013-12-26 10:22:00,
2013-12-26 04:52:00,17.0,11.0,28.70,SE,143,0.0,0.0,77,0.00,,,0.31,,2013-12-26 10:52:00,
2013-12-26 05:22:00,18.0,12.0,28.67,SE,143,0.0,0.0,78,0.00,,,0.31,,2013-12-26 11:22:00,
2013-12-26 05:52:00,18.0,12.0,28.67,SE,143,0.0,0.0,78,0.00,,,0.31,,2013-12-26 11:52:00,
2013-12-26 06:22:00,19.0,14.0,28.67,SE,143,0.0,3.0,79,0.00,,,0.31,,2013-12-26 12:22:00,
2013-12-26 06:42:00,19.0,14.0,28.67,SE,143,2.0,3.0,79,0.00,,,0.31,,2013-12-26 12:42:00,
2013-12-26 06:53:00,19.0,14.0,28.67,SE,143,2.0,3.0,79,0.00,,,0.31,,2013-12-26 12:53:00,
2013-12-26 07:22:00,20.0,15.0,28.64,SE,144,2.0,3.0,79,0.00,,,0.31,,2013-12-26 13:22:00,
2013-12-26 07:32:00,20.0,15.0,28.64,SE,144,2.0,3.0,79,0.00,,,0.31,,2013-12-26 13:32:00,
2013-12-26 07:42:00,20.0,15.0,28.64,SE,144,2.0,3.0,79,0.00,,,0.31,,2013-12-26 13:42:00,
2013-12-26 07:53:00,20.0,15.0,28.64,SE,144,2.0,3.0,79,0.00,,,0.31,,2013-12-26 13:53:00,
2013-12-26 08:01:00,20.0,15.0,28.64,SE,144,2.0,3.0,79,0.00,,,0.31,,2013-12-26 14:01:00,
2013-12-26 08:22:00,23.0,17.0,28.64,SE,140,0.0,0.0,78,0.00,,,0.31,,2013-12-26 14:22:00,
2013-12-26 08:52:00,23.0,17.0,28.67,SSE,162,0.0,3.0,77,0.00,,,0.31,,2013-12-26 14:52:00,
2013-12-26 09:02:00,23.0,17.0,28.67,SSE,162,0.0,3.0,77,0.00,,,0.31,,2013-12-26 15:02:00,
2013-12-26 09:22:00,25.0,19.0,28.67,SSE,155,0.0,2.0,76,0.00,,,0.31,,2013-12-26 15:22:00,
2013-12-26 09:53:00,30.0,22.0,28.67,SE,128,2.0,7.0,73,0.00,,,0.31,,2013-12-26 15:53:00,
2013-12-26 10:03:00,30.0,22.0,28.67,SE,128,2.0,7.0,73,0.00,,,0.31,,2013-12-26 16:03:00,
2013-12-26 10:23:00,33.0,23.0,28.67,South,186,3.0,7.0,65,0.00,,,0.31,,2013-12-26 16:23:00,
2013-12-26 10:53:00,37.0,19.0,28.64,SSE,164,3.0,7.0,48,0.00,,,0.31,,2013-12-26 16:53:00,
2013-12-26 11:02:00,37.0,19.0,28.64,SSE,164,3.0,7.0,48,0.00,,,0.31,,2013-12-26 17:02:00,
2013-12-26 11:23:00,40.0,20.0,28.67,SW,222,4.0,5.0,45,0.00,,,0.31,,2013-12-26 17:23:00,
2013-12-26 11:52:00,41.0,21.0,28.64,South,175,3.0,7.0,44,0.00,,,0.31,,2013-12-26 17:52:00,
2013-12-26 12:22:00,41.0,20.0,28.64,SW,222,5.0,7.0,43,0.00,,,0.16,,2013-12-26 18:22:00,
2013-12-26 12:32:00,41.0,20.0,28.64,SW,222,5.0,7.0,43,0.00,,,0.16,,2013-12-26 18:32:00,
2013-12-26 12:42:00,41.0,20.0,28.64,SW,222,5.0,7.0,43,0.00,,,0.16,,2013-12-26 18:42:00,
2013-12-26 12:52:00,41.0,20.0,28.64,SW,222,5.0,7.0,43,0.00,,,0.16,,2013-12-26 18:52:00,
2013-12-26 13:02:00,41.0,20.0,28.64,SW,222,5.0,7.0,43,0.00,,,0.16,,2013-12-26 19:02:00,
2013-12-26 13:22:00,44.0,22.0,28.64,SSW,196,3.0,5.0,41,0.00,,,0.00,,2013-12-26 19:22:00,
2013-12-26 13:42:00,44.0,22.0,28.64,SE,140,2.0,5.0,41,0.00,,,0.00,,2013-12-26 19:42:00,
2013-12-26 13:52:00,44.0,22.0,28.64,SE,140,2.0,5.0,41,0.00,,,0.00,,2013-12-26 19:52:00,
2013-12-26 14:22:00,46.0,22.0,28.64,SW,223,3.0,5.0,39,0.00,,,0.00,,2013-12-26 20:22:00,
2013-12-26 14:33:00,46.0,22.0,28.64,SW,223,3.0,5.0,39,0.00,,,0.00,,2013-12-26 20:33:00,
2013-12-26 14:52:00,47.0,23.0,28.61,South,176,2.0,5.0,38,0.00,,,0.00,,2013-12-26 20:52:00,
2013-12-26 15:22:00,46.0,22.0,28.61,SSW,199,3.0,5.0,39,0.00,,,0.00,,2013-12-26 21:22:00,
2013-12-26 15:53:00,47.0,23.0,28.61,South,181,2.0,5.0,39,0.00,,,0.00,,2013-12-26 21:53:00,
2013-12-26 16:03:00,47.0,23.0,28.61,South,181,2.0,5.0,39,0.00,,,0.00,,2013-12-26 22:03:00,
2013-12-26 16:23:00,45.0,22.0,28.61,SE,146,2.0,5.0,40,0.00,,,0.00,,2013-12-26 22:23:00,
2013-12-26 16:52:00,40.0,20.0,28.64,South,172,0.0,3.0,45,0.00,,,0.00,,2013-12-26 22:52:00,
2013-12-26 17:22:00,38.0,20.0,28.64,South,172,0.0,0.0,48,0.00,,,0.00,,2013-12-26 23:22:00,
2013-12-26 17:53:00,36.0,20.0,28.64,South,172,0.0,0.0,51,0.00,,,0.00,,2013-12-26 23:53:00,
2013-12-26 22:23:00,25.0,17.0,28.70,South,172,0.0,0.0,71,0.00,,,0.00,,2013-12-27 04:23:00,
2013-12-26 23:22:00,24.0,17.0,28.70,South,172,0.0,0.0,73,0.00,,,0.00,,2013-12-27 05:22:00,
2013-12-26 23:32:00,24.0,17.0,28.70,South,172,0.0,0.0,73,0.00,,,0.00,,2013-12-27 05:32:00,
2013-12-26 23:52:00,24.0,17.0,28.70,South,171,0.0,3.0,75,0.00,,,0.00,,2013-12-27 05:52:00,